Terminal Aerodrome Forecast
Issued by NWS Caribou, ME

Home | Current Version | Previous Version | Text Only | Print | Product List | Glossary On
Versions: 1 2 3 4 5 6 7 8 9 10 11 12 13 14 15 16 17 18 19 20 21 22 23 24 25 26 27 28 29 30 31 32 33 34
000
FTUS41 KCAR 301720
TAFBGR
TAF
KBGR 301720Z 3018/0118 35004KT P6SM BKN150
     FM010400 00000KT 3SM -RA OVC070
     FM011000 14006KT 4SM -RA SCT008 OVC010
     FM011200 14006KT 3SM -RADZ BKN007 OVC010
     FM011700 11007KT 6SM -RADZ OVC010=

USA.gov is the U.S. government's official web portal to all federal, state and local government web resources and services.